Grape Creek, Texas
Current Conditions -  °F | °C
As of 6:51 PM on Saturday 25 Oct 2014 (Local Time) from KSJT Reporting Station
Clear Clear  
Wind Chill: 82°   Ceiling: Unl
Heat Index: 82°   Visibility: 10mi
Dew Point: 48°   Wind: 7mph
Humidity: 30%   Direction: 190°S
Pressure: 30.08"   Gusts: NA
Location:  31.5873°N, 100.522°W
Report Text: KSJT 252351Z 19006KT 10SM CLR 28/09 A3008 RMK AO2 SLP168 T02780089 10322 20278 55005
Loading
Personal Weather Stations






























Interactive Weather Map
Tropical Storm Tracking
New forecast layout! Learn more

10-Day Weather Forecast

Advertisements
Track Severe Weather on mobile